Harrow, United Kingdom
Current Conditions -  °F | °C
As of 3:50 PM on Monday 24 Nov 2014 (Local Time) from EGWU Reporting Station
Clear Clear  
Wind Chill: 43°   Ceiling: Unl
Heat Index: 43°   Visibility: 6mi
Dew Point: 39°   Wind: 1mph
Humidity: 87%   Direction: 40°NE
Pressure: 30.3"   Gusts: NA
Location:  51.58°N, 0.33°W
Report Text: EGWU 241550Z 04001KT CAVOK 06/04 Q1026 NOSIG
Loading
Personal Weather Stations






























Interactive Weather Map New forecast layout! Learn more

10-Day Weather Forecast

Advertisements
Track Severe Weather on mobile